French Village, Canada
Current Conditions -  °F | °C
As of 8:00 AM on Thursday 23 Oct 2014 (Local Time) from CYAW Reporting Station
Overcast Overcast  
Wind Chill: 55°   Ceiling: 1800
Heat Index: 55°   Visibility: 12mi
Dew Point: 52°   Wind: 22mph
Humidity: 88%   Direction: 70°ENE
Pressure: 30.03"   Gusts: 31mph
Location:  44.7°N, 63.88°W
Report Text: CYAW 231100Z 07019G27KT 12SM BKN018 BKN038 OVC072 13/11 A3003 RMK SC5SC2AC1 DA-56FT FST OBS SLP171
Loading
Personal Weather Stations






























Interactive Weather Map
Tropical Storm Tracking
New forecast layout! Learn more

10-Day Weather Forecast

Advertisements
Track Severe Weather on mobile